createdAt,value
2022-09-23T00:01:22.399Z,68.21
2022-09-23T00:03:50.529Z,68.41
2022-09-23T00:06:21.611Z,68.47
2022-09-23T00:08:50.224Z,68.49
2022-09-23T00:11:20.277Z,68.35
2022-09-23T00:13:50.075Z,68.31
2022-09-23T00:16:20.281Z,68.17
2022-09-23T00:18:49.419Z,68.28
2022-09-23T00:21:19.570Z,68.37
2022-09-23T00:23:47.333Z,68.70
2022-09-23T00:26:18.181Z,68.68
2022-09-23T00:28:46.144Z,69.05
2022-09-23T00:31:16.144Z,69.12
2022-09-23T00:33:44.226Z,69.22
2022-09-23T00:36:15.655Z,68.84
2022-09-23T00:38:45.831Z,68.95
2022-09-23T00:41:16.964Z,68.55
2022-09-23T00:43:47.576Z,68.78
2022-09-23T00:46:19.728Z,68.98
2022-09-23T00:48:53.199Z,68.95
2022-09-23T00:51:25.746Z,68.77
2022-09-23T00:53:54.981Z,69.01
2022-09-23T00:56:25.319Z,68.88
2022-09-23T00:58:54.842Z,69.16
2022-09-23T01:01:22.805Z,69.22
2022-09-23T01:03:52.351Z,69.70
2022-09-23T01:06:20.437Z,69.37
2022-09-23T01:08:48.813Z,69.43
2022-09-23T01:11:41.258Z,69.73
2022-09-23T01:14:34.352Z,69.99
2022-09-23T01:17:06.544Z,69.68
2022-09-23T01:19:54.351Z,69.95
2022-09-23T01:22:29.181Z,70.59
2022-09-23T01:25:13.344Z,70.87
2022-09-23T01:28:02.685Z,70.55
2022-09-23T01:30:44.250Z,70.59
2022-09-23T01:33:20.070Z,71.01
2022-09-23T01:36:06.136Z,71.67
2022-09-23T01:38:41.088Z,71.45
2022-09-23T01:41:20.426Z,71.43
2022-09-23T01:43:55.559Z,70.88
2022-09-23T01:46:28.851Z,71.16
2022-09-23T01:49:03.646Z,70.92
2022-09-23T01:51:35.359Z,70.95
2022-09-23T01:54:09.297Z,71.02
2022-09-23T01:56:41.372Z,70.79
2022-09-23T01:59:15.573Z,70.07
2022-09-23T02:01:50.873Z,70.77
2022-09-23T02:04:25.164Z,70.71
2022-09-23T02:06:58.017Z,70.39
2022-09-23T02:09:29.487Z,70.49
2022-09-23T02:12:04.790Z,70.66
2022-09-23T02:14:37.478Z,70.59
2022-09-23T02:17:12.217Z,71.35
2022-09-23T02:19:44.622Z,71.68
2022-09-23T02:22:16.888Z,70.96
2022-09-23T02:24:45.051Z,71.49
2022-09-23T02:27:21.183Z,71.26
2022-09-23T02:29:58.017Z,71.91
2022-09-23T02:32:34.650Z,72.09
2022-09-23T02:35:10.935Z,72.12
2022-09-23T02:37:44.896Z,71.87
2022-09-23T02:40:23.605Z,71.98
2022-09-23T02:43:02.821Z,72.03
2022-09-23T02:45:32.147Z,71.47
2022-09-23T02:48:06.532Z,71.87
2022-09-23T02:50:34.934Z,71.93
2022-09-23T02:53:03.202Z,71.75
2022-09-23T02:55:32.356Z,71.40
2022-09-23T02:58:03.021Z,71.24
2022-09-23T03:00:41.126Z,70.93
2022-09-23T03:03:24.147Z,71.77
2022-09-23T03:05:56.397Z,71.46
2022-09-23T03:08:37.245Z,71.92
2022-09-23T03:11:08.558Z,72.21
2022-09-23T03:13:48.198Z,72.43
2022-09-23T03:16:30.007Z,71.64
2022-09-23T03:19:12.772Z,71.97
2022-09-23T03:21:45.951Z,72.19
2022-09-23T03:24:15.768Z,71.66
2022-09-23T03:26:47.669Z,71.75
2022-09-23T03:29:17.882Z,71.74
2022-09-23T03:31:46.487Z,71.77
2022-09-23T03:34:21.385Z,71.56
2022-09-23T03:37:00.481Z,70.90
2022-09-23T03:39:36.390Z,71.34
2022-09-23T03:42:15.338Z,71.80
2022-09-23T03:44:45.482Z,72.02
2022-09-23T03:47:14.631Z,71.68
2022-09-23T03:49:48.394Z,71.14
2022-09-23T03:52:16.989Z,71.44
2022-09-23T03:54:45.131Z,71.34
2022-09-23T03:57:13.958Z,71.12
2022-09-23T03:59:42.228Z,71.14
2022-09-23T04:02:11.847Z,71.17
2022-09-23T04:04:41.047Z,71.14
2022-09-23T04:07:11.024Z,71.72
2022-09-23T04:09:39.462Z,71.61
2022-09-23T04:12:08.141Z,72.27
2022-09-23T04:14:35.995Z,71.88
2022-09-23T04:17:03.936Z,71.50
2022-09-23T04:19:31.781Z,71.38
2022-09-23T04:21:59.580Z,72.12
2022-09-23T04:24:29.000Z,72.22
2022-09-23T04:26:57.540Z,72.33
2022-09-23T04:29:26.115Z,73.04
2022-09-23T04:31:54.746Z,72.76
2022-09-23T04:34:22.902Z,72.77
2022-09-23T04:36:51.188Z,73.33
2022-09-23T04:39:19.508Z,72.45
2022-09-23T04:41:48.711Z,72.23
2022-09-23T04:44:17.089Z,72.56
2022-09-23T04:46:47.987Z,72.12
2022-09-23T04:49:16.748Z,72.97
2022-09-23T04:51:44.983Z,73.76
2022-09-23T04:54:14.935Z,73.45
2022-09-23T04:56:43.090Z,72.90
2022-09-23T04:59:12.235Z,72.59
2022-09-23T05:01:40.087Z,71.87
2022-09-23T05:04:13.801Z,72.61
2022-09-23T05:06:45.079Z,72.98
2022-09-23T05:09:16.450Z,74.25
2022-09-23T05:11:44.980Z,73.87
2022-09-23T05:14:14.362Z,73.70
2022-09-23T05:16:42.358Z,72.66
2022-09-23T05:19:10.339Z,72.67
2022-09-23T05:21:38.233Z,73.83
2022-09-23T05:24:06.376Z,73.52
2022-09-23T05:26:34.378Z,73.33
2022-09-23T05:29:02.231Z,73.78
2022-09-23T05:31:32.089Z,73.23
2022-09-23T05:34:01.704Z,73.54
2022-09-23T05:36:35.610Z,72.57
2022-09-23T05:39:06.759Z,72.67
2022-09-23T05:41:34.954Z,72.92
2022-09-23T05:44:03.364Z,73.02
2022-09-23T05:46:33.140Z,72.83
2022-09-23T05:49:03.229Z,73.19
2022-09-23T05:51:32.527Z,72.95
2022-09-23T05:54:04.267Z,72.19
2022-09-23T05:56:33.654Z,72.65
2022-09-23T05:59:02.697Z,72.43
2022-09-23T06:01:34.479Z,72.56
2022-09-23T06:04:03.615Z,72.29
2022-09-23T06:06:33.792Z,72.27
2022-09-23T06:09:02.109Z,72.48
2022-09-23T06:11:32.046Z,72.48
2022-09-23T06:14:02.258Z,71.89
2022-09-23T06:16:33.114Z,72.05
2022-09-23T06:19:05.952Z,73.10
2022-09-23T06:21:35.448Z,72.66
2022-09-23T06:24:04.130Z,72.79
2022-09-23T06:26:34.827Z,72.92
2022-09-23T06:29:03.271Z,73.10
2022-09-23T06:31:32.963Z,72.81
2022-09-23T06:34:12.247Z,73.30
2022-09-23T06:36:44.365Z,73.53
2022-09-23T06:39:13.038Z,73.59
2022-09-23T06:41:40.815Z,74.14
2022-09-23T06:44:13.210Z,74.32
2022-09-23T06:46:43.800Z,73.88
2022-09-23T06:49:13.290Z,73.33
2022-09-23T06:51:41.479Z,73.60
2022-09-23T06:54:09.621Z,73.33
2022-09-23T06:56:39.695Z,73.50
2022-09-23T06:59:10.340Z,73.34
2022-09-23T07:01:38.368Z,73.17
2022-09-23T07:04:08.101Z,73.01
2022-09-23T07:06:36.094Z,72.76
2022-09-23T07:09:04.347Z,72.92
2022-09-23T07:11:32.217Z,73.13
2022-09-23T07:14:03.241Z,72.71
2022-09-23T07:16:31.617Z,73.07
2022-09-23T07:18:59.661Z,73.17
2022-09-23T07:21:29.094Z,72.76
2022-09-23T07:23:57.993Z,72.69
2022-09-23T07:26:26.563Z,72.89
2022-09-23T07:28:56.855Z,72.80
2022-09-23T07:31:37.696Z,72.87
2022-09-23T07:34:08.465Z,72.58
2022-09-23T07:36:40.683Z,72.59
2022-09-23T07:39:11.025Z,72.20
2022-09-23T07:41:39.610Z,71.46
2022-09-23T07:44:08.151Z,71.79
2022-09-23T07:46:37.366Z,71.67
2022-09-23T07:49:06.237Z,71.54
2022-09-23T07:51:36.901Z,71.48
2022-09-23T07:54:08.632Z,71.48
2022-09-23T07:56:37.692Z,70.64
2022-09-23T07:59:05.737Z,70.52
2022-09-23T08:01:35.470Z,70.34
2022-09-23T08:04:05.652Z,70.49
2022-09-23T08:06:33.898Z,70.00
2022-09-23T08:09:02.646Z,69.25
2022-09-23T08:11:32.832Z,69.16
2022-09-23T08:14:00.637Z,69.55
2022-09-23T08:16:28.550Z,69.25
2022-09-23T08:18:56.525Z,69.93
2022-09-23T08:21:24.366Z,69.80
2022-09-23T08:23:52.460Z,70.24
2022-09-23T08:26:22.481Z,69.60
2022-09-23T08:28:54.610Z,68.67
2022-09-23T08:31:23.288Z,68.67
2022-09-23T08:33:55.704Z,69.26
2022-09-23T08:36:23.626Z,68.43
2022-09-23T08:38:51.641Z,67.64
2022-09-23T08:41:28.459Z,66.66
2022-09-23T08:44:00.510Z,66.97
2022-09-23T08:46:34.136Z,66.96
2022-09-23T08:49:02.993Z,65.78
2022-09-23T08:51:36.663Z,66.28
2022-09-23T08:54:04.666Z,66.08
2022-09-23T08:56:35.462Z,66.16
2022-09-23T08:59:10.377Z,65.83
2022-09-23T09:01:43.729Z,65.13
2022-09-23T09:04:18.678Z,65.48
2022-09-23T09:06:53.967Z,64.67
2022-09-23T09:09:29.413Z,64.52
2022-09-23T09:12:04.211Z,63.41
2022-09-23T09:14:38.877Z,62.50
2022-09-23T09:17:10.540Z,61.76
2022-09-23T09:19:55.303Z,60.93
2022-09-23T09:22:34.169Z,60.52
2022-09-23T09:25:11.120Z,60.37
2022-09-23T09:27:42.272Z,60.20
2022-09-23T09:30:15.428Z,59.91
2022-09-23T09:32:48.319Z,60.15
2022-09-23T09:35:33.263Z,59.62
2022-09-23T09:38:01.813Z,59.30
2022-09-23T09:40:29.669Z,59.78
2022-09-23T09:42:57.705Z,59.63
2022-09-23T09:45:57.510Z,59.46
2022-09-23T09:48:34.236Z,59.27
2022-09-23T09:51:19.567Z,58.67
2022-09-23T09:53:47.427Z,58.93
2022-09-23T09:56:17.240Z,58.48
2022-09-23T09:58:49.360Z,58.40
2022-09-23T10:01:26.693Z,58.28
2022-09-23T10:03:59.146Z,58.06
2022-09-23T10:06:29.611Z,59.61
2022-09-23T10:09:13.793Z,59.78
2022-09-23T10:11:42.776Z,60.54
2022-09-23T10:14:17.996Z,59.70
2022-09-23T10:16:48.752Z,59.01
2022-09-23T10:19:26.823Z,58.84
2022-09-23T10:21:59.837Z,59.63
2022-09-23T10:24:30.982Z,59.55
2022-09-23T10:27:02.735Z,58.77
2022-09-23T10:29:32.976Z,57.91
2022-09-23T10:32:26.848Z,57.21
2022-09-23T10:34:58.309Z,57.12
2022-09-23T10:37:33.998Z,57.16
2022-09-23T10:40:29.896Z,56.78
2022-09-23T10:43:30.348Z,56.95
2022-09-23T10:46:21.606Z,57.06
2022-09-23T10:49:08.899Z,57.39
2022-09-23T10:51:45.489Z,56.52
2022-09-23T10:54:28.441Z,55.31
2022-09-23T10:57:02.402Z,54.27
2022-09-23T10:59:48.213Z,53.44
2022-09-23T11:02:32.389Z,52.85
2022-09-23T11:05:15.454Z,53.01
2022-09-23T11:07:50.468Z,53.02
2022-09-23T11:10:55.786Z,52.58
2022-09-23T11:13:41.208Z,51.92
2022-09-23T11:16:20.041Z,51.81
2022-09-23T11:19:10.757Z,51.29
2022-09-23T11:21:57.051Z,51.10
2022-09-23T11:24:50.081Z,51.42
2022-09-23T11:27:31.504Z,51.50
2022-09-23T11:30:08.094Z,52.05
2022-09-23T11:35:42.614Z,51.19
2022-09-23T11:38:18.701Z,50.79
2022-09-23T11:40:54.725Z,50.48
2022-09-23T11:43:25.222Z,48.68
2022-09-23T11:45:59.655Z,47.20
2022-09-23T11:48:34.545Z,44.67
2022-09-23T11:51:05.843Z,44.10
2022-09-23T11:53:43.366Z,42.64
2022-09-23T11:56:32.075Z,42.22
2022-09-23T11:59:10.613Z,41.40
2022-09-23T12:01:45.809Z,41.72
2022-09-23T12:04:24.903Z,41.55
2022-09-23T12:06:58.733Z,40.08
2022-09-23T12:09:57.352Z,39.05
2022-09-23T12:12:30.342Z,37.43
2022-09-23T12:15:04.556Z,37.74
2022-09-23T12:17:51.618Z,37.11
2022-09-23T12:20:33.657Z,37.07
2022-09-23T12:23:14.889Z,36.54
2022-09-23T12:25:49.912Z,36.36
2022-09-23T12:28:22.981Z,36.29
2022-09-23T12:30:54.822Z,36.45
2022-09-23T12:33:24.907Z,36.08
2022-09-23T12:35:54.432Z,35.31
2022-09-23T12:38:26.223Z,34.80
2022-09-23T12:40:57.113Z,33.80
2022-09-23T12:43:30.830Z,34.45
2022-09-23T12:46:27.188Z,35.24
2022-09-23T12:49:03.592Z,35.55
2022-09-23T12:51:32.704Z,36.14
2022-09-23T12:54:25.336Z,36.15
2022-09-23T12:57:02.024Z,36.38
2022-09-23T12:59:48.792Z,36.22
2022-09-23T13:02:27.318Z,36.59
2022-09-23T13:05:18.060Z,37.41
2022-09-23T13:07:49.781Z,39.10
2022-09-23T13:10:26.153Z,39.68
2022-09-23T13:12:56.282Z,40.05
2022-09-23T13:15:29.986Z,40.72
2022-09-23T13:18:46.207Z,40.33
2022-09-23T13:21:20.039Z,41.35
2022-09-23T13:24:20.211Z,42.40
2022-09-23T13:26:51.171Z,42.88
2022-09-23T13:29:23.155Z,42.53
2022-09-23T13:31:51.041Z,42.42
2022-09-23T13:34:22.892Z,43.15
2022-09-23T13:36:50.713Z,42.80
2022-09-23T13:39:24.611Z,43.52
2022-09-23T13:41:54.753Z,43.19
2022-09-23T13:44:23.960Z,42.82
2022-09-23T13:46:53.760Z,42.32
2022-09-23T13:49:25.366Z,42.99
2022-09-23T13:51:54.070Z,42.81
2022-09-23T13:54:30.939Z,43.16
2022-09-23T13:56:59.278Z,43.56
2022-09-23T13:59:30.675Z,43.85
2022-09-23T14:02:06.211Z,43.66
2022-09-23T14:04:34.176Z,43.33
2022-09-23T14:07:02.938Z,43.28
2022-09-23T14:09:32.166Z,43.08
2022-09-23T14:12:01.932Z,42.35
2022-09-23T14:14:31.970Z,42.13
2022-09-23T14:17:00.458Z,41.38
2022-09-23T14:19:28.369Z,41.44
2022-09-23T14:21:57.434Z,40.83
2022-09-23T14:24:31.825Z,40.28
2022-09-23T14:27:02.675Z,39.99
2022-09-23T14:29:34.750Z,39.96
2022-09-23T14:32:04.868Z,39.31
2022-09-23T14:34:48.097Z,38.86
2022-09-23T14:37:43.616Z,37.93
2022-09-23T14:40:16.372Z,37.04
2022-09-23T14:42:46.717Z,36.25
2022-09-23T14:45:20.048Z,35.68
2022-09-23T14:47:50.772Z,35.46
2022-09-23T14:50:39.618Z,35.00
2022-09-23T14:53:40.301Z,34.49
2022-09-23T14:56:14.569Z,34.23
2022-09-23T14:58:49.510Z,34.00
2022-09-23T15:01:37.793Z,33.92
2022-09-23T15:04:18.103Z,33.82
2022-09-23T15:06:50.789Z,33.68
2022-09-23T15:09:24.357Z,34.09
2022-09-23T15:11:54.168Z,33.91
2022-09-23T15:14:37.220Z,34.17
2022-09-23T15:17:15.920Z,34.08
2022-09-23T15:19:44.161Z,34.04
2022-09-23T15:22:12.921Z,34.47
2022-09-23T15:24:45.956Z,35.13
2022-09-23T15:27:33.970Z,35.71
2022-09-23T15:30:14.912Z,35.79
2022-09-23T15:32:45.330Z,35.47
2022-09-23T15:35:15.871Z,35.79
2022-09-23T15:37:44.796Z,36.55
2022-09-23T15:40:20.674Z,37.16
2022-09-23T15:42:51.423Z,37.25
2022-09-23T15:45:22.315Z,37.64
2022-09-23T15:47:52.225Z,37.81
2022-09-23T15:50:20.688Z,38.35
2022-09-23T15:52:48.584Z,38.59
2022-09-23T15:55:17.575Z,38.49
2022-09-23T15:57:45.357Z,38.35
2022-09-23T16:00:15.695Z,38.17
2022-09-23T16:02:45.698Z,38.01
2022-09-23T16:05:21.256Z,38.11
2022-09-23T16:07:52.118Z,38.33
2022-09-23T16:10:22.425Z,38.43
2022-09-23T16:12:52.674Z,38.30
2022-09-23T16:15:22.217Z,38.68
2022-09-23T16:17:50.448Z,39.20
2022-09-23T16:20:19.910Z,40.10
2022-09-23T16:22:54.651Z,40.92
2022-09-23T16:25:28.123Z,42.21
2022-09-23T16:27:57.232Z,43.52
2022-09-23T16:30:26.738Z,44.42
2022-09-23T16:32:55.338Z,46.49
2022-09-23T16:35:26.844Z,48.02
2022-09-23T16:37:55.718Z,48.69
2022-09-23T16:40:24.871Z,49.86
2022-09-23T16:42:54.419Z,51.12
2022-09-23T16:45:23.254Z,51.25
2022-09-23T16:47:54.276Z,51.76
2022-09-23T16:50:24.981Z,52.82
2022-09-23T16:52:55.114Z,53.86
2022-09-23T16:55:27.186Z,54.67
2022-09-23T16:57:56.342Z,56.22
2022-09-23T17:00:42.184Z,58.69
2022-09-23T17:03:30.571Z,57.98
2022-09-23T17:06:03.412Z,57.03
2022-09-23T17:08:34.190Z,56.72
2022-09-23T17:11:02.087Z,57.03
2022-09-23T17:13:30.960Z,56.93
2022-09-23T17:15:59.312Z,56.97
2022-09-23T17:18:27.495Z,57.16
2022-09-23T17:21:01.492Z,57.45
2022-09-23T17:23:31.570Z,57.71
2022-09-23T17:26:00.773Z,57.89
2022-09-23T17:28:29.029Z,58.46
2022-09-23T17:30:58.929Z,58.56
2022-09-23T17:33:27.902Z,58.66
2022-09-23T17:35:56.714Z,58.83
2022-09-23T17:38:29.091Z,58.84
2022-09-23T17:41:01.117Z,59.11
2022-09-23T17:43:31.053Z,58.54
2022-09-23T17:46:05.169Z,59.32
2022-09-23T17:48:35.314Z,59.46
2022-09-23T17:51:05.516Z,59.63
2022-09-23T17:53:35.960Z,59.36
2022-09-23T17:56:05.725Z,59.83
2022-09-23T17:58:35.455Z,59.72
2022-09-23T18:01:03.432Z,59.62
2022-09-23T18:03:32.711Z,59.79
2022-09-23T18:06:11.583Z,60.12
2022-09-23T18:08:41.677Z,60.10
2022-09-23T18:11:18.375Z,60.05
2022-09-23T18:13:51.263Z,59.70
2022-09-23T18:16:20.175Z,59.84
2022-09-23T18:18:51.421Z,59.54
2022-09-23T18:21:19.668Z,59.32
2022-09-23T18:23:49.188Z,59.39
2022-09-23T18:26:18.882Z,59.28
2022-09-23T18:28:48.023Z,59.57
2022-09-23T18:31:18.050Z,59.76
2022-09-23T18:33:50.297Z,59.91
2022-09-23T18:36:18.180Z,59.83
2022-09-23T18:38:46.604Z,60.64
2022-09-23T18:41:16.304Z,60.53
2022-09-23T18:43:48.322Z,60.73
2022-09-23T18:46:18.195Z,61.40
2022-09-23T18:49:03.763Z,61.11
2022-09-23T18:51:32.370Z,61.67
2022-09-23T18:54:01.807Z,61.08
2022-09-23T18:56:37.054Z,61.35
2022-09-23T18:59:06.302Z,61.96
2022-09-23T19:01:34.652Z,61.58
2022-09-23T19:04:03.386Z,61.45
2022-09-23T19:06:34.534Z,62.35
2022-09-23T19:09:02.892Z,62.65
2022-09-23T19:11:32.674Z,62.67
2022-09-23T19:14:01.440Z,62.21
2022-09-23T19:16:31.617Z,62.61
2022-09-23T19:19:00.909Z,62.63
2022-09-23T19:21:30.061Z,62.90
2022-09-23T19:24:03.373Z,63.61
2022-09-23T19:26:35.172Z,63.12
2022-09-23T19:29:04.449Z,62.81
2022-09-23T19:31:34.435Z,63.05
2022-09-23T19:34:04.524Z,63.34
2022-09-23T19:36:34.692Z,63.34
2022-09-23T19:39:04.404Z,63.63
2022-09-23T19:41:35.405Z,64.06
2022-09-23T19:44:07.659Z,64.68
2022-09-23T19:46:37.660Z,64.35
2022-09-23T19:49:07.349Z,64.98
2022-09-23T19:51:35.874Z,64.35
2022-09-23T19:54:04.917Z,65.75
2022-09-23T19:56:35.042Z,65.35
2022-09-23T19:59:05.869Z,65.71
2022-09-23T20:01:34.592Z,65.96
2022-09-23T20:04:03.137Z,65.76
2022-09-23T20:06:32.044Z,65.93
2022-09-23T20:09:00.828Z,66.15
2022-09-23T20:11:29.892Z,66.18
2022-09-23T20:14:01.513Z,65.72
2022-09-23T20:16:32.865Z,65.85
2022-09-23T20:19:01.778Z,66.42
2022-09-23T20:21:30.115Z,65.63
2022-09-23T20:23:58.244Z,65.80
2022-09-23T20:26:49.020Z,65.44
2022-09-23T20:29:18.408Z,66.33
2022-09-23T20:31:46.296Z,66.42
2022-09-23T20:34:14.262Z,65.45
2022-09-23T20:36:42.525Z,66.25
2022-09-23T20:39:10.995Z,66.65
2022-09-23T20:41:39.785Z,66.47
2022-09-23T20:44:12.463Z,66.01
2022-09-23T20:46:47.840Z,65.92
2022-09-23T20:49:16.643Z,66.32
2022-09-23T20:51:44.492Z,66.67
2022-09-23T20:54:12.991Z,66.51
2022-09-23T20:56:41.043Z,65.79
2022-09-23T20:59:10.552Z,66.17
2022-09-23T21:01:38.484Z,65.77
2022-09-23T21:04:09.621Z,65.59
2022-09-23T21:06:39.099Z,65.84
2022-09-23T21:09:08.674Z,65.66
2022-09-23T21:11:36.692Z,66.05
2022-09-23T21:14:04.697Z,67.09
2022-09-23T21:16:32.708Z,66.98
2022-09-23T21:19:02.779Z,66.44
2022-09-23T21:21:31.937Z,67.21
2022-09-23T21:24:17.345Z,66.91
2022-09-23T21:26:50.207Z,67.03
2022-09-23T21:29:18.152Z,66.44
2022-09-23T21:31:47.389Z,66.42
2022-09-23T21:34:15.863Z,66.74
2022-09-23T21:36:46.145Z,67.00
2022-09-23T21:39:14.467Z,67.05
2022-09-23T21:41:42.338Z,67.58
2022-09-23T21:44:10.497Z,67.71
2022-09-23T21:46:38.389Z,67.71
2022-09-23T21:49:06.637Z,68.37
2022-09-23T21:51:40.788Z,67.94
2022-09-23T21:54:13.892Z,67.08
2022-09-23T21:56:42.107Z,67.63
2022-09-23T21:59:09.971Z,67.32
2022-09-23T22:01:40.097Z,66.73
2022-09-23T22:04:14.021Z,67.02
2022-09-23T22:06:42.320Z,67.07
2022-09-23T22:09:14.291Z,67.75
2022-09-23T22:12:00.241Z,67.30
2022-09-23T22:14:29.508Z,67.67
2022-09-23T22:17:00.010Z,67.62
2022-09-23T22:19:34.688Z,67.86
2022-09-23T22:22:02.995Z,67.60
2022-09-23T22:24:32.083Z,67.70
2022-09-23T22:26:59.893Z,67.18
2022-09-23T22:29:45.452Z,67.55
2022-09-23T22:32:30.663Z,66.92
2022-09-23T22:34:58.527Z,66.49
2022-09-23T22:37:28.702Z,66.69
2022-09-23T22:39:57.899Z,66.35
2022-09-23T22:42:26.096Z,66.47
2022-09-23T22:44:55.416Z,66.38
2022-09-23T22:47:23.524Z,66.26
2022-09-23T22:49:54.451Z,67.37
2022-09-23T22:52:24.398Z,67.40
2022-09-23T22:54:52.676Z,67.35
2022-09-23T22:57:21.868Z,66.99
2022-09-23T22:59:49.667Z,67.37
2022-09-23T23:02:18.796Z,67.34
2022-09-23T23:04:48.142Z,67.51
2022-09-23T23:07:20.766Z,66.99
2022-09-23T23:09:50.316Z,67.35
2022-09-23T23:12:20.052Z,67.64
2022-09-23T23:14:50.885Z,68.44
2022-09-23T23:17:18.839Z,68.51
2022-09-23T23:19:46.871Z,68.10
2022-09-23T23:22:14.636Z,67.58
2022-09-23T23:24:42.393Z,68.26
2022-09-23T23:27:10.280Z,67.59
2022-09-23T23:29:38.117Z,67.88
2022-09-23T23:32:07.658Z,67.65
2022-09-23T23:34:35.459Z,68.19
2022-09-23T23:37:03.312Z,67.97
2022-09-23T23:39:31.103Z,67.50
2022-09-23T23:41:59.149Z,67.51
2022-09-23T23:44:27.759Z,67.75
2022-09-23T23:46:55.709Z,68.77
2022-09-23T23:49:25.599Z,69.19
2022-09-23T23:51:53.678Z,69.34
2022-09-23T23:54:21.547Z,69.22
2022-09-23T23:56:49.400Z,69.42
2022-09-23T23:59:19.698Z,69.10
